OIZI  Iran Shahr Airport

Add Bookmark

Iran

Status
Operational
Latitude Longitude
27° 14' 9" N 60° 43' 12" E
27.236099 60.720001
Local (DST + 5) UTC (GMT + 4)
Oct 21, 2014 05:01 Oct 21, 2014 13:31
Sunrise-Sunset Local UTC
Begin Civil Twilight 05:05 01:35
Sunrise 05:29 01:59
Sunset 04:54 13:24
End Civil Twilight 05:17 13:47

Current Weather

METAR Observed VFR
OIZI 211300Z 30006KT 9999 FEW045 34/06 Q1014 Tue, Oct 21, 2014 @ 13:00 UTC
(31 Minutes ago)
Visual Flight Rules
Wind Visibility Clouds Conditions
300° at 6 knots (11 kph) 10 km or more
  • Few at 4,500' AGL
  • No significant weather
Temperatures Readings Precipitation
Current Temp 34°C (93°F)
Dewpoint 6°C (43°F)
Humidity 17%
Altimeter 29.94"Hg
Sea Level Pressure 1014mb
Field Elevation 1938.98'
None Recorded

24 Hour Weather History

Loading
-

24 Hour Weather Graphs

Loading
-

CheckWX.com is intended as a tool to help pilots better visualize weather data. It is not intended as a substitute for an official weather briefing obtained from a Flight Service Station. CheckWX.com does not meet the FAA requirements for an official pre-flight weather briefing. Therefore, it's important that pilots still call and obtain an official FSS pre-flight weather briefing.